createdAt,value
2023-03-27T00:01:33.910Z,100432.97
2023-03-27T00:04:02.116Z,100438.31
2023-03-27T00:06:29.838Z,100436.97
2023-03-27T00:08:58.147Z,100442.13
2023-03-27T00:11:26.048Z,100445.59
2023-03-27T00:13:54.773Z,100448.53
2023-03-27T00:16:26.733Z,100428.88
2023-03-27T00:18:55.061Z,100463.91
2023-03-27T00:21:23.367Z,100449.47
2023-03-27T00:23:52.024Z,100470.19
2023-03-27T00:26:21.411Z,100474.19
2023-03-27T00:28:49.323Z,100477.97
2023-03-27T00:31:17.927Z,100488.03
2023-03-27T00:33:47.011Z,100490.16
2023-03-27T00:36:15.155Z,100498.97
2023-03-27T00:38:43.520Z,100501.81
2023-03-27T00:41:11.324Z,100504.22
2023-03-27T00:43:43.589Z,100508.63
2023-03-27T00:46:42.559Z,100515.13
2023-03-27T00:49:15.400Z,100506.78
2023-03-27T00:51:46.686Z,100507.81
2023-03-27T00:54:21.705Z,100511.19
2023-03-27T00:56:50.528Z,100465.25
2023-03-27T00:59:23.064Z,100519.56
2023-03-27T01:01:51.543Z,100521.91
2023-03-27T01:04:23.187Z,100526.09
2023-03-27T01:06:54.660Z,100531.34
2023-03-27T01:09:22.664Z,100535.97
2023-03-27T01:12:05.314Z,100535.22
2023-03-27T01:14:42.141Z,100531.56
2023-03-27T01:17:28.063Z,100532.19
2023-03-27T01:20:27.282Z,100544.56
2023-03-27T01:23:16.667Z,100550.97
2023-03-27T01:26:36.532Z,100547.81
2023-03-27T01:29:15.572Z,100563.47
2023-03-27T01:32:17.805Z,100577.50
2023-03-27T01:35:19.495Z,100580.22
2023-03-27T01:38:07.379Z,100582.31
2023-03-27T01:40:42.697Z,100580.22
2023-03-27T01:43:15.422Z,100545.59
2023-03-27T01:45:48.846Z,100587.25
2023-03-27T01:48:22.699Z,100593.44
2023-03-27T01:50:55.386Z,100592.81
2023-03-27T01:53:26.999Z,100600.81
2023-03-27T01:56:02.120Z,100602.59
2023-03-27T01:58:36.065Z,100600.06
2023-03-27T02:01:05.633Z,100618.53
2023-03-27T02:03:36.929Z,100616.28
2023-03-27T02:06:12.639Z,100619.75
2023-03-27T02:08:46.683Z,100625.84
2023-03-27T02:11:24.393Z,100622.81
2023-03-27T02:13:56.475Z,100631.81
2023-03-27T02:16:28.801Z,100636.84
2023-03-27T02:19:01.795Z,100636.31
2023-03-27T02:21:32.426Z,100641.44
2023-03-27T02:24:02.652Z,100640.59
2023-03-27T02:26:32.877Z,100649.41
2023-03-27T02:29:15.398Z,100609.47
2023-03-27T02:31:59.442Z,100657.34
2023-03-27T02:34:43.436Z,100652.28
2023-03-27T02:37:21.666Z,100665.19
2023-03-27T02:40:24.582Z,100660.97
2023-03-27T02:43:07.315Z,100668.00
2023-03-27T02:45:46.679Z,100674.75
2023-03-27T02:48:20.946Z,100681.28
2023-03-27T02:50:55.742Z,100686.94
2023-03-27T02:53:26.711Z,100691.69
2023-03-27T02:55:57.563Z,100685.78
2023-03-27T02:58:33.396Z,100698.19
2023-03-27T03:01:16.931Z,100692.81
2023-03-27T03:04:16.675Z,100691.03
2023-03-27T03:07:07.500Z,100708.66
2023-03-27T03:09:40.338Z,100704.53
2023-03-27T03:12:09.882Z,100708.00
2023-03-27T03:14:45.068Z,100708.28
2023-03-27T03:17:12.990Z,100717.09
2023-03-27T03:19:40.821Z,100710.75
2023-03-27T03:22:09.448Z,100730.78
2023-03-27T03:24:41.836Z,100730.78
2023-03-27T03:27:12.592Z,100711.63
2023-03-27T03:29:48.552Z,100735.44
2023-03-27T03:32:19.770Z,100743.03
2023-03-27T03:34:51.313Z,100733.19
2023-03-27T03:37:19.901Z,100689.94
2023-03-27T03:39:47.827Z,100729.88
2023-03-27T03:42:22.361Z,100696.44
2023-03-27T03:44:53.791Z,100715.81
2023-03-27T03:47:23.475Z,100710.28
2023-03-27T03:49:51.880Z,100748.66
2023-03-27T03:52:19.794Z,100707.00
2023-03-27T03:54:47.652Z,100765.19
2023-03-27T03:57:15.771Z,100763.69
2023-03-27T03:59:50.301Z,100767.25
2023-03-27T04:02:46.316Z,100714.56
2023-03-27T04:05:17.332Z,100773.53
2023-03-27T04:07:45.886Z,100739.44
2023-03-27T04:10:38.307Z,100788.59
2023-03-27T04:13:11.085Z,100761.47
2023-03-27T04:15:48.758Z,100785.03
2023-03-27T04:18:32.802Z,100766.19
2023-03-27T04:21:03.920Z,100809.34
2023-03-27T04:23:33.856Z,100761.69
2023-03-27T04:26:04.660Z,100820.94
2023-03-27T04:28:54.192Z,100783.81
2023-03-27T04:31:46.513Z,100797.28
2023-03-27T04:34:40.599Z,100723.88
2023-03-27T04:37:28.850Z,100837.16
2023-03-27T04:40:18.118Z,100818.06
2023-03-27T04:42:46.557Z,100839.06
2023-03-27T04:45:17.232Z,100811.31
2023-03-27T04:47:48.981Z,100681.78
2023-03-27T04:50:19.172Z,100832.53
2023-03-27T04:52:50.179Z,100802.59
2023-03-27T04:55:19.664Z,100854.19
2023-03-27T04:57:50.359Z,100814.06
2023-03-27T05:00:19.669Z,100856.19
2023-03-27T05:02:48.710Z,100861.13
2023-03-27T05:05:24.966Z,100835.28
2023-03-27T05:07:53.632Z,100871.88
2023-03-27T05:10:24.482Z,100882.28
2023-03-27T05:12:59.710Z,100828.41
2023-03-27T05:15:28.076Z,100852.38
2023-03-27T05:17:57.290Z,100843.22
2023-03-27T05:20:28.057Z,100884.06
2023-03-27T05:22:58.599Z,100894.22
2023-03-27T05:25:27.950Z,100858.09
2023-03-27T05:27:58.163Z,100903.66
2023-03-27T05:30:29.781Z,100908.22
2023-03-27T05:33:18.110Z,100909.66
2023-03-27T05:35:48.961Z,100913.09
2023-03-27T05:38:18.631Z,100920.22
2023-03-27T05:41:05.359Z,100919.28
2023-03-27T05:43:37.349Z,100930.31
2023-03-27T05:46:05.857Z,100928.28
2023-03-27T05:48:33.624Z,100931.00
2023-03-27T05:51:06.517Z,100942.22
2023-03-27T05:53:36.252Z,100938.59
2023-03-27T05:56:20.582Z,100942.69
2023-03-27T05:59:08.627Z,100914.63
2023-03-27T06:01:39.793Z,100946.41
2023-03-27T06:04:09.476Z,100942.00
2023-03-27T06:07:03.074Z,100954.25
2023-03-27T06:09:32.571Z,100957.81
2023-03-27T06:12:18.786Z,100957.91
2023-03-27T06:14:47.568Z,100958.47
2023-03-27T06:17:27.885Z,100957.81
2023-03-27T06:20:12.528Z,100960.25
2023-03-27T06:22:46.717Z,100951.16
2023-03-27T06:25:15.912Z,100969.31
2023-03-27T06:27:44.286Z,100981.09
2023-03-27T06:30:13.158Z,100990.66
2023-03-27T06:32:45.655Z,100992.00
2023-03-27T06:35:15.546Z,100994.44
2023-03-27T06:37:53.695Z,100999.91
2023-03-27T06:40:25.631Z,101004.97
2023-03-27T06:42:56.853Z,101007.59
2023-03-27T06:45:33.315Z,101013.44
2023-03-27T06:48:27.437Z,101016.41
2023-03-27T06:50:57.912Z,101010.16
2023-03-27T06:53:28.658Z,101011.00
2023-03-27T06:55:58.503Z,100992.63
2023-03-27T06:58:28.432Z,101020.34
2023-03-27T07:00:56.389Z,101021.69
2023-03-27T07:03:25.672Z,101023.16
2023-03-27T07:06:02.571Z,101016.59
2023-03-27T07:08:50.774Z,101027.50
2023-03-27T07:11:19.478Z,101027.88
2023-03-27T07:13:55.274Z,101033.13
2023-03-27T07:16:26.905Z,101035.38
2023-03-27T07:18:55.010Z,101038.69
2023-03-27T07:21:24.205Z,101046.56
2023-03-27T07:23:54.430Z,101056.59
2023-03-27T07:26:31.792Z,101063.28
2023-03-27T07:29:06.074Z,101063.06
2023-03-27T07:31:51.644Z,101062.72
2023-03-27T07:34:28.134Z,101067.50
2023-03-27T07:37:23.650Z,101067.59
2023-03-27T07:40:13.726Z,101072.84
2023-03-27T07:42:46.681Z,101075.28
2023-03-27T07:45:21.810Z,101083.91
2023-03-27T07:47:52.672Z,101076.03
2023-03-27T07:50:22.699Z,101074.34
2023-03-27T07:52:51.108Z,101075.66
2023-03-27T07:55:22.410Z,101081.00
2023-03-27T07:58:03.442Z,101080.34
2023-03-27T08:00:36.411Z,101073.03
2023-03-27T08:03:14.069Z,101070.66
2023-03-27T08:05:57.538Z,101099.00
2023-03-27T08:08:32.838Z,101096.66
2023-03-27T08:11:05.074Z,101093.66
2023-03-27T08:13:37.356Z,101103.13
2023-03-27T08:16:11.737Z,101073.50
2023-03-27T08:18:39.609Z,101108.13
2023-03-27T08:21:10.280Z,101108.13
2023-03-27T08:23:39.772Z,101108.28
2023-03-27T08:26:27.801Z,101119.75
2023-03-27T08:28:58.442Z,101107.47
2023-03-27T08:31:30.861Z,101122.25
2023-03-27T08:34:04.417Z,101118.13
2023-03-27T08:36:48.488Z,101131.94
2023-03-27T08:39:17.232Z,101123.75
2023-03-27T08:42:09.688Z,101132.22
2023-03-27T08:44:41.963Z,101131.09
2023-03-27T08:47:18.016Z,101138.13
2023-03-27T08:49:56.848Z,101097.78
2023-03-27T08:52:35.676Z,101135.47
2023-03-27T08:55:13.429Z,101145.41
2023-03-27T08:57:51.493Z,101158.19
2023-03-27T09:00:26.375Z,101153.66
2023-03-27T09:03:14.561Z,101153.47
2023-03-27T09:05:45.418Z,101159.84
2023-03-27T09:08:24.899Z,101164.03
2023-03-27T09:11:00.121Z,101166.78
2023-03-27T09:13:47.358Z,101172.78
2023-03-27T09:16:21.720Z,101181.06
2023-03-27T09:19:09.396Z,101182.94
2023-03-27T09:21:42.674Z,101178.16
2023-03-27T09:24:21.370Z,101187.16
2023-03-27T09:27:22.992Z,101183.50
2023-03-27T09:30:25.889Z,101190.44
2023-03-27T09:33:07.253Z,101183.31
2023-03-27T09:35:38.726Z,101185.84
2023-03-27T09:38:27.789Z,101166.09
2023-03-27T09:40:59.879Z,101194.28
2023-03-27T09:43:41.469Z,101189.28
2023-03-27T09:46:17.462Z,101194.03
2023-03-27T09:48:56.638Z,101155.94
2023-03-27T09:51:42.268Z,101192.31
2023-03-27T09:54:18.742Z,101190.03
2023-03-27T09:56:49.369Z,101184.97
2023-03-27T09:59:26.134Z,101185.91
2023-03-27T10:01:59.860Z,101191.31
2023-03-27T10:04:30.138Z,101188.16
2023-03-27T10:07:05.401Z,101206.94
2023-03-27T10:10:08.413Z,101215.22
2023-03-27T10:12:57.846Z,101210.72
2023-03-27T10:15:35.756Z,101204.06
2023-03-27T10:18:08.397Z,101210.53
2023-03-27T10:20:36.460Z,101207.84
2023-03-27T10:23:09.065Z,101211.06
2023-03-27T10:25:39.955Z,101207.59
2023-03-27T10:28:22.333Z,101218.34
2023-03-27T10:31:28.140Z,101217.72
2023-03-27T10:34:05.891Z,101212.88
2023-03-27T10:36:55.420Z,101222.22
2023-03-27T10:39:29.569Z,101223.47
2023-03-27T10:42:10.941Z,101223.88
2023-03-27T10:44:46.663Z,101220.28
2023-03-27T10:47:20.800Z,101228.91
2023-03-27T10:50:01.735Z,101225.75
2023-03-27T10:52:46.021Z,101236.66
2023-03-27T10:55:34.007Z,101233.47
2023-03-27T10:58:08.481Z,101241.94
2023-03-27T11:00:43.387Z,101241.78
2023-03-27T11:03:20.204Z,101215.22
2023-03-27T11:05:53.708Z,101242.56
2023-03-27T11:08:36.684Z,101233.50
2023-03-27T11:11:14.396Z,101253.28
2023-03-27T11:13:48.914Z,101248.00
2023-03-27T11:16:22.936Z,101230.16
2023-03-27T11:19:45.017Z,101260.41
2023-03-27T11:22:39.200Z,101256.81
2023-03-27T11:25:22.160Z,101257.88
2023-03-27T11:27:58.763Z,101284.34
2023-03-27T11:30:37.277Z,101232.00
2023-03-27T11:33:41.626Z,101277.06
2023-03-27T11:36:33.909Z,101259.56
2023-03-27T11:39:19.160Z,101289.28
2023-03-27T11:41:53.178Z,101298.38
2023-03-27T11:44:23.096Z,101293.28
2023-03-27T11:47:53.510Z,101327.84
2023-03-27T11:50:32.670Z,101318.31
2023-03-27T11:53:11.662Z,101310.34
2023-03-27T11:56:14.014Z,101307.94
2023-03-27T11:59:01.696Z,101322.03
2023-03-27T12:01:36.046Z,101323.66
2023-03-27T12:04:20.103Z,101305.16
2023-03-27T12:07:35.265Z,101326.66
2023-03-27T12:10:18.426Z,101316.03
2023-03-27T12:13:41.089Z,101313.13
2023-03-27T12:16:31.530Z,101320.44
2023-03-27T12:19:27.753Z,101335.00
2023-03-27T12:22:33.144Z,101330.00
2023-03-27T12:25:31.144Z,101329.75
2023-03-27T12:28:33.794Z,101330.31
2023-03-27T12:31:35.400Z,101338.47
2023-03-27T12:34:06.355Z,101336.16
2023-03-27T12:36:38.982Z,101335.94
2023-03-27T12:39:16.147Z,101340.88
2023-03-27T12:41:46.167Z,101325.66
2023-03-27T12:44:33.171Z,101345.28
2023-03-27T12:47:09.539Z,101350.63
2023-03-27T12:49:48.029Z,101349.19
2023-03-27T12:52:25.504Z,101344.16
2023-03-27T12:55:08.911Z,101349.16
2023-03-27T12:58:05.259Z,101341.09
2023-03-27T13:01:03.384Z,101341.97
2023-03-27T13:04:09.233Z,101342.47
2023-03-27T13:06:47.215Z,101342.63
2023-03-27T13:09:34.265Z,101369.50
2023-03-27T13:12:19.736Z,101368.56
2023-03-27T13:15:11.900Z,101363.47
2023-03-27T13:17:56.819Z,101352.84
2023-03-27T13:20:37.898Z,101357.91
2023-03-27T13:23:19.274Z,101369.56
2023-03-27T13:26:08.548Z,101371.75
2023-03-27T13:28:42.730Z,101363.84
2023-03-27T13:31:16.646Z,101351.41
2023-03-27T13:34:14.162Z,101352.69
2023-03-27T13:36:47.537Z,101358.81
2023-03-27T13:39:28.052Z,101332.94
2023-03-27T13:42:09.725Z,101355.38
2023-03-27T13:44:58.593Z,101320.53
2023-03-27T13:47:54.213Z,101344.03
2023-03-27T13:50:41.964Z,101318.50
2023-03-27T13:53:25.164Z,101341.56
2023-03-27T13:56:35.351Z,101346.78
2023-03-27T13:59:38.594Z,101334.75
2023-03-27T14:02:36.268Z,101330.03
2023-03-27T14:05:25.081Z,101344.22
2023-03-27T14:08:25.071Z,101339.88
2023-03-27T14:11:30.921Z,101341.50
2023-03-27T14:14:37.997Z,101345.53
2023-03-27T14:17:22.571Z,101321.34
2023-03-27T14:20:25.321Z,101342.75
2023-03-27T14:22:57.946Z,101344.59
2023-03-27T14:25:36.460Z,101345.41
2023-03-27T14:28:31.530Z,101351.81
2023-03-27T14:31:02.221Z,101371.72
2023-03-27T14:34:15.613Z,101375.81
2023-03-27T14:36:46.039Z,101365.72
2023-03-27T14:39:31.045Z,101367.44
2023-03-27T14:42:29.145Z,101365.59
2023-03-27T14:45:09.998Z,101369.88
2023-03-27T14:47:38.345Z,101375.16
2023-03-27T14:50:07.310Z,101378.66
2023-03-27T14:52:40.922Z,101379.59
2023-03-27T14:55:23.711Z,101380.34
2023-03-27T14:58:11.832Z,101377.19
2023-03-27T15:00:42.677Z,101383.31
2023-03-27T15:03:16.937Z,101397.09
2023-03-27T15:05:57.303Z,101382.31
2023-03-27T15:08:33.582Z,101394.44
2023-03-27T15:11:12.512Z,101389.88
2023-03-27T15:13:52.128Z,101376.72
2023-03-27T15:16:30.727Z,101396.66
2023-03-27T15:19:09.605Z,101405.22
2023-03-27T15:21:46.365Z,101407.53
2023-03-27T15:24:19.381Z,101419.50
2023-03-27T15:26:50.472Z,101430.31
2023-03-27T15:29:27.436Z,101433.59
2023-03-27T15:31:59.716Z,101421.44
2023-03-27T15:34:34.552Z,101405.66
2023-03-27T15:37:05.715Z,101419.00
2023-03-27T15:39:34.962Z,101407.28
2023-03-27T15:42:05.941Z,101409.28
2023-03-27T15:44:35.205Z,101407.63
2023-03-27T15:47:02.889Z,101407.00
2023-03-27T15:49:33.527Z,101413.34
2023-03-27T15:52:21.970Z,101409.34
2023-03-27T15:54:55.890Z,101411.66
2023-03-27T15:57:24.005Z,101408.28
2023-03-27T15:59:53.773Z,101416.13
2023-03-27T16:02:24.648Z,101421.44
2023-03-27T16:04:55.067Z,101429.84
2023-03-27T16:07:26.038Z,101430.16
2023-03-27T16:09:56.977Z,101424.53
2023-03-27T16:12:30.925Z,101421.97
2023-03-27T16:15:04.378Z,101426.41
2023-03-27T16:17:40.372Z,101422.97
2023-03-27T16:20:32.365Z,101424.38
2023-03-27T16:23:00.125Z,101430.22
2023-03-27T16:25:27.881Z,101427.03
2023-03-27T16:27:58.548Z,101433.97
2023-03-27T16:30:32.212Z,101441.41
2023-03-27T16:33:00.590Z,101428.75
2023-03-27T16:35:28.992Z,101435.97
2023-03-27T16:37:57.044Z,101432.91
2023-03-27T16:40:24.891Z,101447.53
2023-03-27T16:42:52.621Z,101437.41
2023-03-27T16:45:20.396Z,101443.28
2023-03-27T16:47:52.890Z,101445.00
2023-03-27T16:50:23.411Z,101447.16
2023-03-27T16:52:51.485Z,101449.63
2023-03-27T16:55:19.851Z,101451.69
2023-03-27T16:57:47.593Z,101457.50
2023-03-27T17:00:18.580Z,101456.75
2023-03-27T17:02:47.126Z,101446.22
2023-03-27T17:05:16.709Z,101458.81
2023-03-27T17:07:46.789Z,101459.38
2023-03-27T17:10:14.997Z,101464.75
2023-03-27T17:12:42.758Z,101470.19
2023-03-27T17:15:10.976Z,101474.78
2023-03-27T17:17:38.714Z,101473.25
2023-03-27T17:20:08.221Z,101478.81
2023-03-27T17:22:37.411Z,101456.50
2023-03-27T17:25:06.195Z,101481.97
2023-03-27T17:27:34.556Z,101474.28
2023-03-27T17:30:02.816Z,101485.09
2023-03-27T17:32:31.032Z,101487.69
2023-03-27T17:34:58.699Z,101500.09
2023-03-27T17:37:27.229Z,101482.16
2023-03-27T17:39:56.358Z,101512.84
2023-03-27T17:42:24.059Z,101517.34
2023-03-27T17:44:51.712Z,101521.28
2023-03-27T17:47:19.485Z,101516.56
2023-03-27T17:49:47.237Z,101507.22
2023-03-27T17:52:14.933Z,101515.47
2023-03-27T17:54:42.643Z,101531.59
2023-03-27T17:57:11.834Z,101526.59
2023-03-27T17:59:39.610Z,101540.31
2023-03-27T18:02:08.069Z,101540.22
2023-03-27T18:04:36.496Z,101550.66
2023-03-27T18:07:04.271Z,101547.88
2023-03-27T18:09:34.155Z,101560.25
2023-03-27T18:12:01.934Z,101559.03
2023-03-27T18:14:31.088Z,101543.38
2023-03-27T18:16:58.856Z,101561.88
2023-03-27T18:19:26.584Z,101567.38
2023-03-27T18:21:54.365Z,101568.47
2023-03-27T18:24:22.544Z,101567.47
2023-03-27T18:26:50.365Z,101563.91
2023-03-27T18:29:21.152Z,101543.28
2023-03-27T18:31:50.275Z,101579.13
2023-03-27T18:34:18.048Z,101580.00
2023-03-27T18:36:50.590Z,101575.75
2023-03-27T18:39:19.014Z,101578.13
2023-03-27T18:41:46.920Z,101580.50
2023-03-27T18:44:15.550Z,101583.38
2023-03-27T18:46:43.245Z,101586.94
2023-03-27T18:49:23.723Z,101587.94
2023-03-27T18:51:52.920Z,101591.94
2023-03-27T18:54:20.784Z,101589.31
2023-03-27T18:56:48.710Z,101591.03
2023-03-27T18:59:16.621Z,101586.25
2023-03-27T19:01:44.371Z,101600.84
2023-03-27T19:04:16.517Z,101599.13
2023-03-27T19:06:46.185Z,101600.50
2023-03-27T19:09:14.306Z,101599.50
2023-03-27T19:11:43.839Z,101587.94
2023-03-27T19:14:30.305Z,101590.13
2023-03-27T19:17:16.911Z,101602.59
2023-03-27T19:20:21.592Z,101609.69
2023-03-27T19:23:04.231Z,101598.78
2023-03-27T19:25:35.863Z,101620.13
2023-03-27T19:28:04.377Z,101614.88
2023-03-27T19:30:33.323Z,101616.91
2023-03-27T19:33:02.316Z,101616.72
2023-03-27T19:35:31.606Z,101597.31
2023-03-27T19:37:59.330Z,101622.06
2023-03-27T19:40:27.237Z,101620.47
2023-03-27T19:42:54.950Z,101622.25
2023-03-27T19:45:22.777Z,101621.47
2023-03-27T19:47:50.717Z,101615.38
2023-03-27T19:50:18.592Z,101627.03
2023-03-27T19:53:05.143Z,101618.66
2023-03-27T19:55:36.176Z,101629.44
2023-03-27T19:58:03.970Z,101636.84
2023-03-27T20:00:35.023Z,101628.03
2023-03-27T20:03:02.943Z,101634.16
2023-03-27T20:05:30.900Z,101636.84
2023-03-27T20:08:02.466Z,101641.16
2023-03-27T20:10:30.232Z,101647.34
2023-03-27T20:12:58.615Z,101655.00
2023-03-27T20:15:26.382Z,101637.97
2023-03-27T20:17:54.152Z,101653.38
2023-03-27T20:20:21.996Z,101648.13
2023-03-27T20:22:57.518Z,101654.28
2023-03-27T20:25:29.844Z,101656.34
2023-03-27T20:27:57.586Z,101653.84
2023-03-27T20:30:25.566Z,101641.19
2023-03-27T20:32:53.270Z,101651.22
2023-03-27T20:35:24.628Z,101648.31
2023-03-27T20:37:57.630Z,101622.88
2023-03-27T20:40:27.781Z,101661.44
2023-03-27T20:43:05.690Z,101656.19
2023-03-27T20:45:33.472Z,101655.16
2023-03-27T20:48:03.969Z,101645.38
2023-03-27T20:50:34.966Z,101651.09
2023-03-27T20:53:04.383Z,101644.72
2023-03-27T20:55:37.600Z,101665.44
2023-03-27T20:58:13.733Z,101667.63
2023-03-27T21:00:43.612Z,101667.44
2023-03-27T21:03:12.283Z,101662.53
2023-03-27T21:05:41.239Z,101665.53
2023-03-27T21:08:09.203Z,101663.81
2023-03-27T21:10:38.653Z,101663.66
2023-03-27T21:13:07.267Z,101669.16
2023-03-27T21:15:36.187Z,101662.97
2023-03-27T21:18:03.947Z,101660.44
2023-03-27T21:20:33.883Z,101665.00
2023-03-27T21:23:02.925Z,101668.53
2023-03-27T21:25:30.989Z,101667.91
2023-03-27T21:28:05.939Z,101671.38
2023-03-27T21:30:46.198Z,101670.69
2023-03-27T21:33:16.349Z,101671.38
2023-03-27T21:35:46.874Z,101675.78
2023-03-27T21:38:15.622Z,101673.38
2023-03-27T21:40:43.927Z,101678.63
2023-03-27T21:43:13.123Z,101686.44
2023-03-27T21:45:41.251Z,101684.91
2023-03-27T21:48:10.536Z,101688.53
2023-03-27T21:50:38.525Z,101688.75
2023-03-27T21:53:06.480Z,101682.72
2023-03-27T21:55:34.395Z,101682.97
2023-03-27T21:58:02.192Z,101685.66
2023-03-27T22:00:31.368Z,101685.47
2023-03-27T22:02:59.134Z,101690.06
2023-03-27T22:05:26.973Z,101691.91
2023-03-27T22:07:54.719Z,101687.66
2023-03-27T22:10:22.390Z,101693.88
2023-03-27T22:12:50.311Z,101691.47
2023-03-27T22:15:18.174Z,101696.72
2023-03-27T22:17:47.839Z,101703.59
2023-03-27T22:20:15.761Z,101700.28
2023-03-27T22:22:43.451Z,101710.00
2023-03-27T22:25:11.255Z,101706.53
2023-03-27T22:27:39.522Z,101704.97
2023-03-27T22:30:08.572Z,101674.97
2023-03-27T22:32:36.347Z,101682.13
2023-03-27T22:35:05.939Z,101708.53
2023-03-27T22:37:36.672Z,101724.38
2023-03-27T22:40:05.516Z,101725.31
2023-03-27T22:42:33.987Z,101725.81
2023-03-27T22:45:01.669Z,101722.13
2023-03-27T22:47:31.541Z,101713.06
2023-03-27T22:49:59.988Z,101727.09
2023-03-27T22:52:29.157Z,101715.09
2023-03-27T22:54:56.870Z,101743.94
2023-03-27T22:57:24.610Z,101744.22
2023-03-27T22:59:52.367Z,101744.34
2023-03-27T23:02:20.738Z,101745.00
2023-03-27T23:04:48.535Z,101748.47
2023-03-27T23:07:16.259Z,101750.38
2023-03-27T23:09:45.309Z,101747.75
2023-03-27T23:12:13.092Z,101753.16
2023-03-27T23:14:40.824Z,101756.53
2023-03-27T23:17:08.840Z,101729.63
2023-03-27T23:19:36.534Z,101755.53
2023-03-27T23:22:04.275Z,101766.75
2023-03-27T23:24:32.166Z,101762.47
2023-03-27T23:27:01.242Z,101767.16
2023-03-27T23:29:29.267Z,101766.88
2023-03-27T23:31:57.069Z,101769.22
2023-03-27T23:34:25.384Z,101771.84
2023-03-27T23:36:53.092Z,101768.44
2023-03-27T23:39:20.956Z,101776.25
2023-03-27T23:41:48.652Z,101775.38
2023-03-27T23:44:17.732Z,101772.34
2023-03-27T23:46:45.471Z,101773.53
2023-03-27T23:49:13.632Z,101769.69
2023-03-27T23:51:41.353Z,101784.91
2023-03-27T23:54:09.086Z,101779.94
2023-03-27T23:56:36.889Z,101781.56
2023-03-27T23:59:04.606Z,101788.94
